createdAt,value
2023-02-17T00:05:15.423Z,21.6
2023-02-17T00:10:40.147Z,21.3
2023-02-17T00:16:17.758Z,21
2023-02-17T00:21:39.904Z,21.3
2023-02-17T00:27:17.377Z,21.8
2023-02-17T00:32:54.149Z,21
2023-02-17T00:38:31.884Z,21.9
2023-02-17T00:44:08.600Z,22.4
2023-02-17T00:49:46.236Z,22
2023-02-17T00:55:24.399Z,21.4
2023-02-17T01:00:45.890Z,21.1
2023-02-17T01:06:22.548Z,20.9
2023-02-17T01:11:45.217Z,21.7
2023-02-17T01:17:22.707Z,22.2
2023-02-17T01:22:59.014Z,22.4
2023-02-17T01:28:36.569Z,21.6
2023-02-17T01:33:59.174Z,21.2
2023-02-17T01:39:36.702Z,21
2023-02-17T01:44:58.355Z,21.4
2023-02-17T01:50:20.136Z,22
2023-02-17T01:55:57.663Z,22.3
2023-02-17T02:01:34.800Z,21.9
2023-02-17T02:07:13.478Z,21.5
2023-02-17T02:12:49.822Z,21
2023-02-17T02:18:27.263Z,20.8
2023-02-17T02:24:04.114Z,21.6
2023-02-17T02:29:41.479Z,22.2
2023-02-17T02:35:19.544Z,22.3
2023-02-17T02:40:56.680Z,21.6
2023-02-17T02:46:18.364Z,21.2
2023-02-17T02:51:25.069Z,20.9
2023-02-17T02:56:46.842Z,21.1
2023-02-17T03:02:23.861Z,21.8
2023-02-17T03:08:00.727Z,20.7
2023-02-17T03:13:37.140Z,21.5
2023-02-17T03:19:14.513Z,22.2
2023-02-17T03:24:51.827Z,22.4
2023-02-17T03:30:29.335Z,21.5
2023-02-17T03:35:51.624Z,21.1
2023-02-17T03:41:29.215Z,20.9
2023-02-17T03:47:06.070Z,21.3
2023-02-17T03:52:27.102Z,21.9
2023-02-17T03:58:04.895Z,22.2
2023-02-17T04:03:41.849Z,21.7
2023-02-17T04:09:19.442Z,21.3
2023-02-17T04:14:56.970Z,20.9
2023-02-17T04:20:34.506Z,21
2023-02-17T04:25:55.798Z,21.8
2023-02-17T04:31:20.857Z,22.3
2023-02-17T04:37:01.744Z,22
2023-02-17T04:42:39.625Z,21.4
2023-02-17T04:48:17.882Z,20.8
2023-02-17T04:53:53.895Z,20.6
2023-02-17T04:59:31.487Z,21.5
2023-02-17T05:04:53.521Z,22.4
2023-02-17T05:10:30.808Z,22.6
2023-02-17T05:16:09.456Z,21.4
2023-02-17T05:21:46.985Z,21
2023-02-17T05:27:25.012Z,20.9
2023-02-17T05:32:47.533Z,20.8
2023-02-17T05:38:25.264Z,21.4
2023-02-17T05:44:03.195Z,20.3
2023-02-17T05:49:40.729Z,20.9
2023-02-17T05:55:17.817Z,22.2
2023-02-17T06:00:55.663Z,21.7
2023-02-17T06:06:33.552Z,20.6
2023-02-17T06:11:55.505Z,20.5
2023-02-17T06:17:35.303Z,20.3
2023-02-17T06:23:11.870Z,21
2023-02-17T06:28:35.643Z,21.7
2023-02-17T06:34:12.775Z,21.4
2023-02-17T06:39:50.066Z,21.6
2023-02-17T06:45:27.482Z,21.3
2023-02-17T06:51:05.175Z,20.6
2023-02-17T06:56:42.372Z,20.8
2023-02-17T07:02:20.623Z,21.6
2023-02-17T07:07:57.730Z,21.9
2023-02-17T07:13:20.498Z,21.6
2023-02-17T07:18:42.960Z,21.1
2023-02-17T07:24:21.009Z,20.7
2023-02-17T07:29:43.110Z,20.5
2023-02-17T07:35:20.748Z,21.6
2023-02-17T07:40:44.584Z,22.3
2023-02-17T07:46:23.221Z,22
2023-02-17T07:52:00.861Z,21.4
2023-02-17T07:57:38.112Z,20.8
2023-02-17T08:03:15.784Z,20.6
2023-02-17T08:08:53.284Z,21.9
2023-02-17T08:14:32.510Z,22.6
2023-02-17T08:20:08.885Z,21.9
2023-02-17T08:25:47.083Z,21.4
2023-02-17T08:31:25.292Z,22.3
2023-02-17T08:37:03.136Z,22.1
2023-02-17T08:42:24.044Z,21.4
2023-02-17T08:48:02.290Z,21.3
2023-02-17T08:53:41.459Z,22.3
2023-02-17T08:59:16.013Z,22.3
2023-02-17T09:04:38.316Z,21.6
2023-02-17T09:10:01.240Z,21.3
2023-02-17T09:15:40.683Z,22.3
2023-02-17T09:21:30.914Z,22.3
2023-02-17T09:27:03.492Z,21.5
2023-02-17T09:32:26.904Z,21.4
2023-02-17T09:37:48.911Z,22.4
2023-02-17T09:43:28.313Z,22.1
2023-02-17T09:49:15.130Z,21.5
2023-02-17T09:54:37.310Z,21.6
2023-02-17T10:00:02.533Z,22.4
2023-02-17T10:05:43.295Z,21.8
2023-02-17T10:11:05.627Z,21.4
2023-02-17T10:16:29.027Z,21.1
2023-02-17T10:22:07.154Z,20.9
2023-02-17T10:27:45.362Z,21.9
2023-02-17T10:33:26.980Z,21.8
2023-02-17T10:38:48.978Z,21.3
2023-02-17T10:49:24.677Z,20.9
2023-02-17T10:54:47.418Z,20.9
2023-02-17T11:00:23.326Z,22.1
2023-02-17T11:05:30.171Z,21.6
2023-02-17T11:10:51.263Z,21.2
2023-02-17T11:16:31.960Z,21
2023-02-17T11:22:12.964Z,20.7
2023-02-17T11:27:34.911Z,21.1
2023-02-17T11:33:13.438Z,22.1
2023-02-17T11:38:51.384Z,21.4
2023-02-17T11:44:12.758Z,21
2023-02-17T11:49:34.655Z,20.9
2023-02-17T11:55:27.263Z,20.6
2023-02-17T12:01:04.603Z,21.5
2023-02-17T12:06:42.445Z,22.9
2023-02-17T12:12:04.631Z,22.2
2023-02-17T12:17:26.856Z,21.8
2023-02-17T12:22:32.364Z,21.6
2023-02-17T12:28:11.761Z,21.5
2023-02-17T12:33:34.483Z,21.7
2023-02-17T12:38:56.046Z,23
2023-02-17T12:44:18.552Z,22.3
2023-02-17T12:49:41.364Z,21.9
2023-02-17T12:55:03.449Z,21.7
2023-02-17T13:00:27.188Z,21.6
2023-02-17T13:05:49.593Z,22.1
2023-02-17T13:11:11.100Z,23.1
2023-02-17T13:16:17.697Z,22.3
2023-02-17T13:21:39.694Z,21.9
2023-02-17T13:27:01.415Z,21.8
2023-02-17T13:32:23.646Z,21.6
2023-02-17T13:37:46.142Z,21.5
2023-02-17T13:43:09.827Z,22.8
2023-02-17T13:48:32.270Z,23
2023-02-17T13:54:11.751Z,22.4
2023-02-17T13:59:33.250Z,22
2023-02-17T14:05:05.236Z,22.7
2023-02-17T14:10:27.620Z,22.3
2023-02-17T14:15:49.303Z,22.3
2023-02-17T14:21:29.881Z,22.1
2023-02-17T14:27:17.554Z,21.2
2023-02-17T14:32:55.044Z,20.6
2023-02-17T14:38:32.224Z,20.3
2023-02-17T14:44:09.962Z,20.1
2023-02-17T14:49:48.936Z,20
2023-02-17T14:55:10.930Z,19.9
2023-02-17T15:00:47.826Z,19.9
2023-02-17T15:06:28.504Z,19.6
2023-02-17T15:12:06.989Z,19.5
2023-02-17T15:17:44.304Z,19.4
2023-02-17T15:23:22.175Z,19.4
2023-02-17T15:29:04.053Z,19.4
2023-02-17T15:34:43.792Z,19.3
2023-02-17T15:40:21.859Z,19.2
2023-02-17T15:45:48.246Z,19
2023-02-17T15:51:27.316Z,18.9
2023-02-17T15:56:49.384Z,18.9
2023-02-17T16:02:27.521Z,18.9
2023-02-17T16:08:06.197Z,18.9
2023-02-17T16:13:43.193Z,18.9
2023-02-17T16:19:20.282Z,18.8
2023-02-17T16:30:21.195Z,18.6
2023-02-17T16:35:44.709Z,18.6
2023-02-17T16:41:09.252Z,18.6
2023-02-17T16:46:47.559Z,18.5
2023-02-17T16:52:27.552Z,18.6
2023-02-17T16:58:05.860Z,21.8
2023-02-17T17:03:44.455Z,23.5
2023-02-17T17:09:22.029Z,22.9
2023-02-17T17:15:04.665Z,21.9
2023-02-17T17:20:41.839Z,23.1
2023-02-17T17:26:19.038Z,22.2
2023-02-17T17:31:41.775Z,20.3
2023-02-17T17:37:03.730Z,20.6
2023-02-17T17:42:28.830Z,20.8
2023-02-17T17:53:12.795Z,21.6
2023-02-17T17:58:50.017Z,21.3
2023-02-17T18:04:30.797Z,20.8
2023-02-17T18:10:05.284Z,21.1
2023-02-17T18:15:42.681Z,21.4
2023-02-17T18:21:20.688Z,20.7
2023-02-17T18:27:01.608Z,20.6
2023-02-17T18:32:40.406Z,20.9
2023-02-17T18:38:18.828Z,21.6
2023-02-17T18:43:55.639Z,21
2023-02-17T18:49:17.470Z,20.5
2023-02-17T18:54:39.595Z,20.9
2023-02-17T19:00:16.432Z,21.2
2023-02-17T19:05:53.622Z,20.6
2023-02-17T19:11:30.626Z,20.4
2023-02-17T19:17:07.154Z,20.6
2023-02-17T19:22:44.098Z,21.1
2023-02-17T19:28:21.674Z,20.8
2023-02-17T19:33:59.584Z,20.4
2023-02-17T19:39:36.839Z,20.5
2023-02-17T19:45:01.472Z,21.6
2023-02-17T19:50:38.214Z,21.5
2023-02-17T19:56:15.504Z,21.1
2023-02-17T20:01:37.213Z,20.8
2023-02-17T20:07:14.859Z,20.6
2023-02-17T20:12:52.043Z,20.6
2023-02-17T20:18:32.764Z,21.3
2023-02-17T20:24:10.467Z,21.8
2023-02-17T20:35:11.119Z,20.8
2023-02-17T20:40:48.775Z,20.7
2023-02-17T20:46:11.505Z,20.6
2023-02-17T20:51:50.014Z,21.3
2023-02-17T20:57:27.408Z,21.8
2023-02-17T21:03:05.996Z,21.3
2023-02-17T21:08:43.319Z,20.8
2023-02-17T21:14:20.247Z,20.5
2023-02-17T21:19:57.536Z,21.6
2023-02-17T21:25:34.710Z,21.8
2023-02-17T21:31:12.232Z,22.4
2023-02-17T21:36:49.754Z,23
2023-02-17T21:42:11.860Z,22.9
2023-02-17T21:47:35.494Z,22.1
2023-02-17T21:53:12.882Z,21.5
2023-02-17T21:58:35.932Z,21.3
2023-02-17T22:09:32.984Z,21.4
2023-02-17T22:14:54.066Z,22.4
2023-02-17T22:20:30.876Z,23.1
2023-02-17T22:26:07.804Z,22.8
2023-02-17T22:31:45.880Z,22.1
2023-02-17T22:37:23.049Z,22.2
2023-02-17T22:42:59.262Z,22.9
2023-02-17T22:48:36.706Z,22.9
2023-02-17T22:54:14.342Z,21.4
2023-02-17T22:59:35.926Z,20.9
2023-02-17T23:05:15.850Z,20.6
2023-02-17T23:10:38.662Z,20.4
2023-02-17T23:16:16.260Z,20.6
2023-02-17T23:21:53.705Z,21.4
2023-02-17T23:27:31.500Z,22.1
2023-02-17T23:33:08.722Z,22.1
2023-02-17T23:38:30.032Z,21.4
2023-02-17T23:44:08.219Z,20.8
2023-02-17T23:49:46.293Z,20.4
2023-02-17T23:55:23.794Z,20.9
